createdAt,value
2018-12-25T00:04:22.776Z,14.47
2018-12-25T00:09:15.041Z,14.80
2018-12-25T00:14:07.481Z,15.30
2018-12-25T00:19:06.129Z,14.73
2018-12-25T00:23:54.229Z,34.87
2018-12-25T00:28:46.736Z,12.33
2018-12-25T00:33:39.093Z,11.37
2018-12-25T00:38:31.557Z,11.10
2018-12-25T00:43:24.181Z,14.57
2018-12-25T00:48:16.274Z,10.27
2018-12-25T00:53:08.432Z,12.13
2018-12-25T00:58:00.818Z,12.77
2018-12-25T01:02:57.937Z,14.43
2018-12-25T01:07:52.207Z,18.60
2018-12-25T01:12:45.775Z,15.30
2018-12-25T01:17:39.428Z,9.80
2018-12-25T01:22:31.797Z,11.30
2018-12-25T01:27:24.073Z,14.80
2018-12-25T01:32:16.294Z,9.53
2018-12-25T01:37:08.523Z,9.40
2018-12-25T01:42:00.778Z,11.30
2018-12-25T01:46:53.245Z,9.93
2018-12-25T01:51:45.136Z,11.97
2018-12-25T01:56:37.438Z,13.77
2018-12-25T02:01:29.865Z,10.17
2018-12-25T02:06:22.043Z,9.97
2018-12-25T02:11:14.518Z,12.57
2018-12-25T02:16:07.088Z,11.73
2018-12-25T02:20:59.246Z,9.37
2018-12-25T02:25:51.672Z,10.00
2018-12-25T02:30:43.805Z,8.10
2018-12-25T02:35:35.926Z,10.70
2018-12-25T02:40:28.227Z,9.77
2018-12-25T02:45:20.329Z,10.90
2018-12-25T02:50:13.092Z,11.83
2018-12-25T02:55:05.386Z,12.83
2018-12-25T02:59:57.856Z,13.00
2018-12-25T03:04:49.751Z,12.57
2018-12-25T03:09:41.954Z,12.90
2018-12-25T03:14:34.336Z,12.60
2018-12-25T03:19:26.907Z,12.97
2018-12-25T03:24:19.222Z,14.40
2018-12-25T03:29:11.377Z,13.97
2018-12-25T03:34:03.732Z,14.40
2018-12-25T03:38:56.195Z,13.17
2018-12-25T03:43:48.676Z,13.60
2018-12-25T03:48:40.900Z,14.03
2018-12-25T03:53:33.298Z,22.27
2018-12-25T03:58:25.686Z,21.57
2018-12-25T04:03:18.183Z,17.13
2018-12-25T04:08:10.406Z,17.70
2018-12-25T04:13:03.041Z,17.10
2018-12-25T04:17:55.571Z,17.67
2018-12-25T04:22:47.936Z,18.27
2018-12-25T04:27:40.009Z,18.93
2018-12-25T04:32:32.693Z,16.30
2018-12-25T04:37:24.998Z,18.77
2018-12-25T04:42:17.186Z,19.47
2018-12-25T04:47:09.838Z,20.17
2018-12-25T04:52:02.029Z,18.77
2018-12-25T04:56:54.117Z,18.40
2018-12-25T05:01:46.617Z,19.57
2018-12-25T05:06:38.745Z,18.87
2018-12-25T05:11:30.785Z,18.83
2018-12-25T05:16:23.121Z,18.47
2018-12-25T05:21:15.354Z,15.80
2018-12-25T05:26:07.598Z,16.17
2018-12-25T05:31:00.101Z,16.03
2018-12-25T05:35:52.449Z,14.40
2018-12-25T05:40:44.718Z,13.33
2018-12-25T05:45:37.074Z,14.17
2018-12-25T05:50:29.292Z,15.57
2018-12-25T05:55:21.672Z,14.50
2018-12-25T06:00:13.827Z,15.97
2018-12-25T06:05:06.096Z,14.97
2018-12-25T06:09:58.708Z,15.87
2018-12-25T06:14:51.029Z,15.93
2018-12-25T06:19:43.264Z,18.20
2018-12-25T06:24:35.382Z,20.30
2018-12-25T06:29:27.504Z,19.67
2018-12-25T06:34:19.737Z,18.13
2018-12-25T06:39:12.261Z,17.43
2018-12-25T06:44:04.518Z,26.13
2018-12-25T06:48:56.711Z,18.43
2018-12-25T06:53:48.669Z,17.47
2018-12-25T06:58:41.134Z,16.77
2018-12-25T07:03:33.457Z,17.13
2018-12-25T07:08:25.870Z,15.83
2018-12-25T07:13:17.898Z,38.20
2018-12-25T07:18:10.617Z,38.00
2018-12-25T07:23:02.985Z,25.53
2018-12-25T07:27:55.410Z,25.43
2018-12-25T07:32:47.978Z,28.03
2018-12-25T07:37:39.916Z,23.60
2018-12-25T07:42:32.262Z,17.97
2018-12-25T07:47:24.342Z,21.03
2018-12-25T07:52:16.915Z,20.80
2018-12-25T07:57:09.124Z,14.43
2018-12-25T08:02:01.535Z,17.63
2018-12-25T08:06:53.835Z,48.73
2018-12-25T08:11:45.996Z,23.80
2018-12-25T08:16:38.329Z,22.30
2018-12-25T08:21:30.570Z,19.90
2018-12-25T08:26:22.868Z,28.87
2018-12-25T08:31:15.015Z,27.83
2018-12-25T08:36:07.257Z,26.80
2018-12-25T08:40:59.904Z,21.10
2018-12-25T08:45:51.976Z,17.23
2018-12-25T08:50:44.202Z,20.07
2018-12-25T08:55:36.770Z,15.17
2018-12-25T09:00:28.945Z,14.07
2018-12-25T09:05:21.186Z,16.13
2018-12-25T09:10:13.413Z,16.00
2018-12-25T09:15:05.769Z,21.57
2018-12-25T09:19:58.349Z,18.07
2018-12-25T09:24:51.371Z,17.17
2018-12-25T09:29:43.847Z,18.13
2018-12-25T09:34:35.964Z,16.87
2018-12-25T09:39:28.433Z,17.60
2018-12-25T09:44:20.801Z,15.27
2018-12-25T09:49:13.459Z,16.67
2018-12-25T09:54:05.939Z,16.17
2018-12-25T09:58:58.401Z,15.90
2018-12-25T10:03:50.660Z,16.53
2018-12-25T10:08:42.959Z,18.13
2018-12-25T10:13:35.091Z,17.33
2018-12-25T10:18:27.386Z,17.87
2018-12-25T10:23:19.913Z,19.63
2018-12-25T10:28:12.016Z,18.50
2018-12-25T10:33:04.527Z,17.37
2018-12-25T10:37:57.036Z,18.50
2018-12-25T10:42:49.168Z,18.17
2018-12-25T10:47:41.701Z,19.70
2018-12-25T10:52:33.861Z,19.13
2018-12-25T10:57:26.521Z,20.57
2018-12-25T11:02:18.861Z,20.00
2018-12-25T11:07:10.970Z,18.23
2018-12-25T11:12:03.145Z,17.90
2018-12-25T11:16:55.206Z,18.30
2018-12-25T11:21:47.553Z,26.47
2018-12-25T11:26:39.705Z,21.03
2018-12-25T11:31:32.182Z,19.47
2018-12-25T11:36:24.382Z,18.33
2018-12-25T11:41:16.826Z,18.43
2018-12-25T11:46:09.305Z,18.37
2018-12-25T11:51:01.381Z,19.13
2018-12-25T11:55:53.273Z,17.17
2018-12-25T12:00:45.405Z,15.90
2018-12-25T12:05:37.864Z,15.53
2018-12-25T12:10:30.139Z,14.73
2018-12-25T12:15:22.296Z,15.00
2018-12-25T12:20:14.762Z,15.27
2018-12-25T12:25:07.023Z,13.83
2018-12-25T12:29:59.440Z,12.57
2018-12-25T12:34:51.748Z,12.87
2018-12-25T12:39:43.587Z,10.60
2018-12-25T12:44:35.738Z,11.47
2018-12-25T12:49:28.083Z,11.20
2018-12-25T12:54:20.565Z,10.93
2018-12-25T12:59:12.869Z,9.27
2018-12-25T13:04:05.232Z,9.47
2018-12-25T13:08:57.524Z,12.07
2018-12-25T13:13:49.656Z,10.27
2018-12-25T13:18:41.902Z,9.07
2018-12-25T13:23:34.229Z,12.03
2018-12-25T13:28:26.725Z,8.40
2018-12-25T13:33:19.124Z,4.97
2018-12-25T13:38:11.565Z,6.70
2018-12-25T13:43:03.996Z,9.90
2018-12-25T13:47:56.110Z,5.73
2018-12-25T13:52:48.038Z,5.63
2018-12-25T13:57:40.171Z,4.60
2018-12-25T14:02:32.482Z,5.87
2018-12-25T14:07:24.885Z,5.77
2018-12-25T14:12:16.933Z,4.73
2018-12-25T14:17:09.562Z,5.30
2018-12-25T14:22:02.049Z,4.40
2018-12-25T14:26:54.401Z,4.50
2018-12-25T14:31:46.863Z,3.77
2018-12-25T14:36:39.113Z,4.93
2018-12-25T14:41:31.626Z,5.67
2018-12-25T14:46:23.905Z,6.40
2018-12-25T14:51:16.252Z,6.03
2018-12-25T14:56:08.385Z,6.47
2018-12-25T15:01:00.596Z,7.03
2018-12-25T15:05:53.181Z,6.57
2018-12-25T15:10:45.219Z,5.50
2018-12-25T15:15:37.578Z,5.57
2018-12-25T15:20:29.998Z,5.13
2018-12-25T15:25:22.170Z,4.73
2018-12-25T15:30:14.526Z,7.33
2018-12-25T15:35:10.873Z,5.47
2018-12-25T15:40:03.000Z,5.60
2018-12-25T15:44:55.567Z,6.73
2018-12-25T15:49:47.678Z,15.93
2018-12-25T15:54:39.803Z,9.57
2018-12-25T15:59:31.990Z,27.77
2018-12-25T16:04:24.436Z,16.77
2018-12-25T16:09:16.509Z,21.30
2018-12-25T16:14:09.126Z,23.33
2018-12-25T16:19:01.877Z,27.20
2018-12-25T16:23:53.965Z,14.70
2018-12-25T16:28:46.145Z,18.87
2018-12-25T16:33:38.348Z,16.43
2018-12-25T16:38:30.532Z,14.70
2018-12-25T16:43:22.639Z,14.97
2018-12-25T16:48:16.504Z,16.60
2018-12-25T16:53:08.561Z,18.90
2018-12-25T16:58:00.972Z,23.67
2018-12-25T17:02:53.161Z,15.37
2018-12-25T17:07:45.260Z,13.00
2018-12-25T17:12:37.615Z,16.53
2018-12-25T17:17:29.836Z,11.53
2018-12-25T17:22:21.703Z,17.30
2018-12-25T17:27:14.000Z,16.30
2018-12-25T17:32:06.189Z,15.83
2018-12-25T17:36:58.766Z,16.30
2018-12-25T17:41:51.217Z,11.80
2018-12-25T17:46:43.609Z,13.83
2018-12-25T17:51:35.397Z,17.33
2018-12-25T17:56:27.943Z,24.77
2018-12-25T18:01:20.106Z,18.37
2018-12-25T18:06:12.285Z,24.90
2018-12-25T18:11:04.571Z,21.07
2018-12-25T18:15:56.900Z,25.03
2018-12-25T18:20:49.211Z,26.03
2018-12-25T18:25:41.400Z,18.17
2018-12-25T18:30:33.730Z,24.60
2018-12-25T18:35:26.069Z,14.50
2018-12-25T18:40:18.114Z,10.73
2018-12-25T18:45:11.235Z,11.33
2018-12-25T18:50:04.183Z,15.73
2018-12-25T18:54:56.583Z,17.53
2018-12-25T18:59:48.669Z,15.87
2018-12-25T19:04:41.226Z,12.10
2018-12-25T19:09:33.322Z,15.07
2018-12-25T19:14:25.759Z,14.63
2018-12-25T19:19:17.825Z,12.20
2018-12-25T19:24:10.501Z,10.53
2018-12-25T19:29:02.426Z,9.53
2018-12-25T19:33:54.697Z,9.67
2018-12-25T19:38:47.305Z,10.20
2018-12-25T19:43:39.766Z,14.20
2018-12-25T19:48:31.964Z,19.17
2018-12-25T19:53:24.423Z,18.40
2018-12-25T19:58:16.661Z,14.43
2018-12-25T20:03:08.904Z,11.23
2018-12-25T20:08:13.258Z,13.83
2018-12-25T20:13:20.270Z,10.70
2018-12-25T20:18:27.670Z,10.37
2018-12-25T20:23:51.148Z,9.57
2018-12-25T20:29:05.233Z,8.97
2018-12-25T20:34:18.737Z,11.83
2018-12-25T20:39:19.863Z,16.27
2018-12-25T20:44:24.062Z,15.93
2018-12-25T20:49:19.168Z,21.17
2018-12-25T20:54:22.998Z,20.20
2018-12-25T20:59:40.513Z,24.50
2018-12-25T21:04:38.065Z,19.47
2018-12-25T21:10:06.268Z,19.23
2018-12-25T21:15:22.482Z,14.30
2018-12-25T21:20:32.729Z,12.73
2018-12-25T21:25:59.542Z,20.17
2018-12-25T21:30:51.810Z,15.23
2018-12-25T21:35:44.426Z,13.37
2018-12-25T21:40:37.661Z,19.10
2018-12-25T21:45:29.893Z,29.23
2018-12-25T21:50:22.878Z,20.93
2018-12-25T21:55:18.913Z,14.90
2018-12-25T22:00:11.329Z,10.87
2018-12-25T22:05:03.866Z,11.57
2018-12-25T22:09:55.773Z,12.77
2018-12-25T22:14:47.948Z,14.13
2018-12-25T22:19:40.174Z,14.80
2018-12-25T22:24:32.466Z,13.27
2018-12-25T22:29:24.971Z,15.90
2018-12-25T22:34:17.655Z,14.70
2018-12-25T22:39:09.793Z,13.70
2018-12-25T22:44:02.259Z,16.77
2018-12-25T22:48:54.448Z,18.43
2018-12-25T22:53:46.760Z,15.53
2018-12-25T22:58:39.157Z,17.87
2018-12-25T23:03:31.309Z,13.07
2018-12-25T23:08:23.803Z,13.10
2018-12-25T23:13:16.051Z,12.57
2018-12-25T23:18:08.540Z,18.83
2018-12-25T23:23:00.966Z,19.67
2018-12-25T23:27:53.637Z,15.80
2018-12-25T23:32:46.242Z,15.77
2018-12-25T23:37:38.478Z,15.33
2018-12-25T23:42:31.013Z,17.83
2018-12-25T23:47:23.452Z,19.03
2018-12-25T23:52:16.078Z,20.07
2018-12-25T23:57:08.221Z,16.73
